»·PEaware :: N222CV KPMD-KCNO

N222CV :: KPMD-KCNO

FLIGHT INFORMATION

Flight Status: Arrived
Operator: Privately registered:
United States
More flights under this callsign
Pilot: Anonymous 39523 (39523)
Aircraft: BEECH AIRCRAFT BARON
(BE58)
More flights by this aircraft type
Origin: KPMD Palmdale AF Plant 42
United States
Destination: KCNO Chino
United States
More flights between these airports :: More routes between these airports
Route: PMD V386 APLES V442 PDZ
File this flight plan on PilotEdge
Remarks:
Altitude:
(Current/Filed)
11,000ft
Speed:
(Current/Filed)
175kts
Departed: 09-Jun-23 02:25 PM
Arrived: 09-Jun-23 03:06 PM
Distance/Time
Traveled:
45nm/0:40
Distance/Time
To Go:
Arrived

Flight Plot

Page will automatically refresh every two minutes.

Flight plan parsing failed; only flown route is shown


Map Options




Map Legend


Flown Route
Filed Route
Departure Airport
Arrival Airport
Navaid (VOR, NDB)
Fix

Horizontal Profiles

Position Reports

Time Latitude Longitude Heading Altitude Ground
Speed
09-Jun-23 14:07 34.636450 -118.095780 90 2518ft 0kts
09-Jun-23 14:08 34.636450 -118.095780 90 2527ft 0kts
09-Jun-23 14:09 34.636450 -118.095780 90 2527ft 0kts
09-Jun-23 14:10 34.636450 -118.095780 90 2527ft 0kts
09-Jun-23 14:11 34.636450 -118.095780 90 2527ft 0kts
09-Jun-23 14:12 34.636450 -118.095780 90 2527ft 0kts
09-Jun-23 14:13 34.636450 -118.095780 90 2527ft 0kts
09-Jun-23 14:14 34.636450 -118.095780 90 2527ft 0kts
09-Jun-23 14:15 34.636448 -118.095547 90 2518ft 0kts
09-Jun-23 14:16 34.636115 -118.095132 206 2517ft 1kts
09-Jun-23 14:17 34.634424 -118.095991 101 2522ft 10kts
09-Jun-23 14:18 34.634846 -118.087734 85 2515ft 35kts
09-Jun-23 14:19 34.635578 -118.074191 99 2500ft 14kts
09-Jun-23 14:20 34.634558 -118.073559 171 2498ft 0kts
09-Jun-23 14:21 34.634558 -118.073559 171 2498ft 0kts
09-Jun-23 14:22 34.634558 -118.073559 171 2498ft 0kts
09-Jun-23 14:23 34.632773 -118.073915 254 2499ft 9kts
09-Jun-23 14:24 34.631785 -118.098487 263 3209ft 134kts
09-Jun-23 14:25 34.606192 -118.109731 107 4952ft 180kts
09-Jun-23 14:26 34.614714 -118.046611 76 5339ft 189kts
09-Jun-23 14:27 34.609991 -117.987179 119 5513ft 183kts
09-Jun-23 14:28 34.587532 -117.932002 121 5497ft 181kts
09-Jun-23 14:29 34.560694 -117.881656 126 5701ft 172kts
09-Jun-23 14:30 34.534060 -117.836186 129 6362ft 162kts
09-Jun-23 14:31 34.506646 -117.791697 129 6967ft 170kts
09-Jun-23 14:32 34.500309 -117.739745 61 7205ft 169kts
09-Jun-23 14:33 34.521633 -117.690956 61 7949ft 160kts
09-Jun-23 14:34 34.542753 -117.643638 61 8540ft 159kts
09-Jun-23 14:35 34.564720 -117.594821 61 9002ft 172kts
09-Jun-23 14:36 34.585182 -117.540991 94 9029ft 177kts
09-Jun-23 14:37 34.579446 -117.481784 98 9045ft 180kts
09-Jun-23 14:38 34.573827 -117.420867 98 9043ft 182kts
09-Jun-23 14:39 34.568108 -117.359106 98 9041ft 184kts
09-Jun-23 14:40 34.562354 -117.297321 99 9012ft 185kts
09-Jun-23 14:41 34.556550 -117.235066 99 8992ft 184kts
09-Jun-23 14:42 34.550769 -117.173749 99 8971ft 182kts
09-Jun-23 14:43 34.535634 -117.119739 170 8958ft 168kts
09-Jun-23 14:44 34.502065 -117.151582 237 8972ft 162kts
09-Jun-23 14:45 34.474304 -117.194440 210 8979ft 164kts
09-Jun-23 14:46 34.433571 -117.219306 208 8962ft 164kts
09-Jun-23 14:47 34.392647 -117.243981 208 8944ft 160kts
09-Jun-23 14:48 34.352312 -117.268619 207 8959ft 164kts
09-Jun-23 14:50 34.267998 -117.319528 207 8970ft 175kts
09-Jun-23 14:51 34.223959 -117.341703 171 8899ft 174kts
09-Jun-23 14:52 34.178224 -117.320968 161 7921ft 171kts
09-Jun-23 14:53 34.135115 -117.300428 161 6946ft 163kts
09-Jun-23 14:54 34.092953 -117.280536 161 5976ft 161kts
09-Jun-23 14:55 34.051079 -117.261317 161 4994ft 160kts
09-Jun-23 14:56 34.015273 -117.282498 240 4304ft 148kts
09-Jun-23 14:57 33.996195 -117.327186 241 4305ft 150kts
09-Jun-23 14:58 33.979360 -117.373419 255 4304ft 150kts
09-Jun-23 14:59 33.977488 -117.424086 268 3969ft 151kts
09-Jun-23 15:00 33.977105 -117.468625 268 3263ft 113kts
09-Jun-23 15:01 33.976783 -117.507832 270 2665ft 129kts
09-Jun-23 15:02 33.976477 -117.550015 271 1993ft 114kts
09-Jun-23 15:03 33.975403 -117.586999 276 1801ft 113kts
09-Jun-23 15:04 33.975863 -117.617991 267 873ft 75kts
09-Jun-23 15:05 33.976039 -117.639210 344 626ft 8kts
09-Jun-23 15:06 33.976602 -117.639237 3 626ft 0kts
09-Jun-23 15:07 33.977565 -117.640719 34 626ft 11kts
09-Jun-23 15:08 33.977705 -117.640681 354 627ft 0kts

Navigation Log

Ident Type
Flight plan parsing failed, navigation log unavailable